createdAt,value
2018-05-02T00:00:28.130Z,17.09
2018-05-02T00:02:55.638Z,17.17
2018-05-02T00:05:23.148Z,17.15
2018-05-02T00:07:50.692Z,17.11
2018-05-02T00:10:18.335Z,17.02
2018-05-02T00:12:45.851Z,17.02
2018-05-02T00:15:13.399Z,16.95
2018-05-02T00:17:40.921Z,16.95
2018-05-02T00:20:08.443Z,16.73
2018-05-02T00:22:35.943Z,16.70
2018-05-02T00:25:03.475Z,16.69
2018-05-02T00:27:30.973Z,16.82
2018-05-02T00:29:58.515Z,16.77
2018-05-02T00:32:26.022Z,16.75
2018-05-02T00:34:53.530Z,16.62
2018-05-02T00:37:21.036Z,16.61
2018-05-02T00:39:48.537Z,16.62
2018-05-02T00:42:16.044Z,16.58
2018-05-02T00:44:43.565Z,16.56
2018-05-02T00:47:11.069Z,16.57
2018-05-02T00:49:38.575Z,16.50
2018-05-02T00:52:06.069Z,16.50
2018-05-02T00:54:33.608Z,16.40
2018-05-02T00:57:01.112Z,16.38
2018-05-02T00:59:28.624Z,16.36
2018-05-02T01:01:56.126Z,16.30
2018-05-02T01:04:23.623Z,16.10
2018-05-02T01:06:51.126Z,16.03
2018-05-02T01:09:18.622Z,16.03
2018-05-02T01:11:46.123Z,16.03
2018-05-02T01:14:13.624Z,15.93
2018-05-02T01:16:41.122Z,15.75
2018-05-02T01:19:08.623Z,15.90
2018-05-02T01:21:36.122Z,15.88
2018-05-02T01:24:03.622Z,15.85
2018-05-02T01:26:31.119Z,15.84
2018-05-02T01:28:58.635Z,15.78
2018-05-02T01:31:26.175Z,15.73
2018-05-02T01:33:53.716Z,15.70
2018-05-02T01:36:21.216Z,15.65
2018-05-02T01:38:48.716Z,15.61
2018-05-02T01:41:16.212Z,15.67
2018-05-02T01:43:43.717Z,15.54
2018-05-02T01:46:11.224Z,15.53
2018-05-02T01:48:38.735Z,15.56
2018-05-02T01:51:06.279Z,15.46
2018-05-02T01:53:33.784Z,15.48
2018-05-02T01:56:01.293Z,15.47
2018-05-02T01:58:28.841Z,15.51
2018-05-02T02:00:56.347Z,15.22
2018-05-02T02:03:23.838Z,15.39
2018-05-02T02:05:51.412Z,15.45
2018-05-02T02:08:18.950Z,15.52
2018-05-02T02:10:46.450Z,15.63
2018-05-02T02:13:13.947Z,15.79
2018-05-02T02:15:41.446Z,15.82
2018-05-02T02:18:08.940Z,15.91
2018-05-02T02:20:36.468Z,15.95
2018-05-02T02:23:04.000Z,15.93
2018-05-02T02:25:31.499Z,15.91
2018-05-02T02:27:58.995Z,15.95
2018-05-02T02:30:26.531Z,15.98
2018-05-02T02:32:54.046Z,15.98
2018-05-02T02:35:21.547Z,16.06
2018-05-02T02:37:49.064Z,16.22
2018-05-02T02:40:16.618Z,16.06
2018-05-02T02:42:44.123Z,16.02
2018-05-02T02:45:11.630Z,16.09
2018-05-02T02:47:39.136Z,16.09
2018-05-02T02:50:06.645Z,16.05
2018-05-02T02:52:34.148Z,15.95
2018-05-02T02:55:01.660Z,15.85
2018-05-02T02:57:29.165Z,15.57
2018-05-02T02:59:56.715Z,15.45
2018-05-02T03:02:24.254Z,15.36
2018-05-02T03:04:51.747Z,15.16
2018-05-02T03:07:19.299Z,15.12
2018-05-02T03:09:46.824Z,15.06
2018-05-02T03:12:14.381Z,15.18
2018-05-02T03:14:41.891Z,15.19
2018-05-02T03:17:09.392Z,15.15
2018-05-02T03:19:36.895Z,15.18
2018-05-02T03:22:04.398Z,15.50
2018-05-02T03:24:31.909Z,15.43
2018-05-02T03:26:59.457Z,15.26
2018-05-02T03:29:26.940Z,15.13
2018-05-02T03:31:54.454Z,15.27
2018-05-02T03:34:21.964Z,15.50
2018-05-02T03:36:49.471Z,15.62
2018-05-02T03:39:16.983Z,15.70
2018-05-02T03:41:44.491Z,15.77
2018-05-02T03:44:11.990Z,15.91
2018-05-02T03:46:39.501Z,15.91
2018-05-02T03:49:07.007Z,15.90
2018-05-02T03:51:34.542Z,16.18
2018-05-02T03:54:02.056Z,16.21
2018-05-02T03:56:29.561Z,16.32
2018-05-02T03:58:57.094Z,16.38
2018-05-02T04:01:36.340Z,16.50
2018-05-02T04:04:15.543Z,16.62
2018-05-02T04:06:54.931Z,16.73
2018-05-02T04:09:23.273Z,16.79
2018-05-02T04:11:50.781Z,16.75
2018-05-02T04:14:18.323Z,16.99
2018-05-02T04:16:45.892Z,17.16
2018-05-02T04:19:13.400Z,16.91
2018-05-02T04:21:40.902Z,16.57
2018-05-02T04:24:08.398Z,16.47
2018-05-02T04:26:35.902Z,16.70
2018-05-02T04:29:03.450Z,16.70
2018-05-02T04:31:30.956Z,17.18
2018-05-02T04:33:58.460Z,17.38
2018-05-02T04:36:26.008Z,17.59
2018-05-02T04:38:53.517Z,17.61
2018-05-02T04:41:21.025Z,18.42
2018-05-02T04:43:48.531Z,18.93
2018-05-02T04:46:16.056Z,18.74
2018-05-02T04:48:43.598Z,18.92
2018-05-02T04:51:11.115Z,19.33
2018-05-02T04:53:38.631Z,19.76
2018-05-02T04:56:06.151Z,20.29
2018-05-02T04:58:33.708Z,20.73
2018-05-02T05:01:01.259Z,21.27
2018-05-02T05:03:28.770Z,21.22
2018-05-02T05:05:57.120Z,21.77
2018-05-02T05:08:24.629Z,22.34
2018-05-02T05:10:52.131Z,22.05
2018-05-02T05:13:19.635Z,21.91
2018-05-02T05:15:47.148Z,22.07
2018-05-02T05:18:14.645Z,22.23
2018-05-02T05:20:42.156Z,21.92
2018-05-02T05:23:09.674Z,22.74
2018-05-02T05:25:37.179Z,23.25
2018-05-02T05:28:04.687Z,22.40
2018-05-02T05:30:32.207Z,21.79
2018-05-02T05:32:59.740Z,21.98
2018-05-02T05:35:27.250Z,23.44
2018-05-02T05:37:54.823Z,23.95
2018-05-02T05:40:22.324Z,23.34
2018-05-02T05:42:49.829Z,24.23
2018-05-02T05:45:17.393Z,23.60
2018-05-02T05:47:44.918Z,24.15
2018-05-02T05:50:12.415Z,25.08
2018-05-02T05:52:39.936Z,24.88
2018-05-02T05:55:07.442Z,24.86
2018-05-02T05:57:34.978Z,25.62
2018-05-02T06:00:02.508Z,26.94
2018-05-02T06:02:30.012Z,26.87
2018-05-02T06:04:57.556Z,28.15
2018-05-02T06:07:25.055Z,27.72
2018-05-02T06:09:52.547Z,27.61
2018-05-02T06:12:20.088Z,27.95
2018-05-02T06:14:47.613Z,28.47
2018-05-02T06:17:15.144Z,26.83
2018-05-02T06:19:42.650Z,27.51
2018-05-02T06:22:10.229Z,26.90
2018-05-02T06:24:37.736Z,26.46
2018-05-02T06:27:05.271Z,25.92
2018-05-02T06:29:32.848Z,25.86
2018-05-02T06:32:00.521Z,27.51
2018-05-02T06:34:27.910Z,27.89
2018-05-02T06:36:55.540Z,28.52
2018-05-02T06:39:23.089Z,28.10
2018-05-02T06:41:50.597Z,29.32
2018-05-02T06:44:18.160Z,27.95
2018-05-02T06:46:45.683Z,26.93
2018-05-02T06:49:13.257Z,26.95
2018-05-02T06:51:40.716Z,27.12
2018-05-02T06:54:08.225Z,27.13
2018-05-02T06:56:35.740Z,28.48
2018-05-02T06:59:03.248Z,29.42
2018-05-02T07:01:30.781Z,29.18
2018-05-02T07:03:58.310Z,29.06
2018-05-02T07:06:25.863Z,29.08
2018-05-02T07:08:53.380Z,28.73
2018-05-02T07:11:20.913Z,28.30
2018-05-02T07:13:48.419Z,29.13
2018-05-02T07:16:15.918Z,29.60
2018-05-02T07:18:43.433Z,30.43
2018-05-02T07:21:10.941Z,29.09
2018-05-02T07:23:38.447Z,29.65
2018-05-02T07:26:05.975Z,30.30
2018-05-02T07:28:33.476Z,28.53
2018-05-02T07:31:01.002Z,29.66
2018-05-02T07:33:28.503Z,31.32
2018-05-02T07:35:56.007Z,28.91
2018-05-02T07:38:23.506Z,28.08
2018-05-02T07:40:51.003Z,29.15
2018-05-02T07:43:18.512Z,30.48
2018-05-02T07:45:46.047Z,30.91
2018-05-02T07:48:13.559Z,30.72
2018-05-02T07:50:41.075Z,30.56
2018-05-02T07:53:08.615Z,31.03
2018-05-02T07:55:36.119Z,31.05
2018-05-02T07:58:03.656Z,32.08
2018-05-02T08:00:31.169Z,32.27
2018-05-02T08:02:58.695Z,32.11
2018-05-02T08:05:26.207Z,31.60
2018-05-02T08:07:53.716Z,32.30
2018-05-02T08:10:21.225Z,30.79
2018-05-02T08:12:48.737Z,30.00
2018-05-02T08:15:16.252Z,32.23
2018-05-02T08:17:43.755Z,33.28
2018-05-02T08:20:11.271Z,33.43
2018-05-02T08:22:38.829Z,32.21
2018-05-02T08:25:06.360Z,31.04
2018-05-02T08:27:34.077Z,33.01
2018-05-02T08:30:01.574Z,33.23
2018-05-02T08:32:29.119Z,32.28
2018-05-02T08:34:57.606Z,33.43
2018-05-02T08:37:25.232Z,34.79
2018-05-02T08:39:53.052Z,32.14
2018-05-02T08:42:20.600Z,32.69
2018-05-02T08:44:48.107Z,32.35
2018-05-02T08:47:15.651Z,32.81
2018-05-02T08:49:43.206Z,34.39
2018-05-02T08:52:10.719Z,32.23
2018-05-02T08:54:38.229Z,33.50
2018-05-02T08:57:05.742Z,34.52
2018-05-02T08:59:33.261Z,35.27
2018-05-02T09:02:01.227Z,34.62
2018-05-02T09:04:28.732Z,33.84
2018-05-02T09:06:56.383Z,34.45
2018-05-02T09:09:24.303Z,34.15
2018-05-02T09:11:51.802Z,35.45
2018-05-02T09:14:19.349Z,34.28
2018-05-02T09:16:46.848Z,33.45
2018-05-02T09:19:14.354Z,33.23
2018-05-02T09:21:41.853Z,33.47
2018-05-02T09:24:09.362Z,33.68
2018-05-02T09:26:36.877Z,32.41
2018-05-02T09:29:04.387Z,32.35
2018-05-02T09:31:31.944Z,33.45
2018-05-02T09:33:59.516Z,33.41
2018-05-02T09:36:27.024Z,34.77
2018-05-02T09:38:54.580Z,34.89
2018-05-02T09:41:22.093Z,33.77
2018-05-02T09:43:49.596Z,33.94
2018-05-02T09:46:17.448Z,33.59
2018-05-02T09:48:45.002Z,34.81
2018-05-02T09:51:12.504Z,32.97
2018-05-02T09:53:40.069Z,33.38
2018-05-02T09:56:07.571Z,32.20
2018-05-02T09:58:35.092Z,31.84
2018-05-02T10:01:02.642Z,32.03
2018-05-02T10:03:30.170Z,33.12
2018-05-02T10:05:57.717Z,33.44
2018-05-02T10:08:25.215Z,32.93
2018-05-02T10:10:53.012Z,33.34
2018-05-02T10:13:20.608Z,33.64
2018-05-02T10:15:48.127Z,33.86
2018-05-02T10:18:15.631Z,34.20
2018-05-02T10:20:43.161Z,34.03
2018-05-02T10:23:10.709Z,34.74
2018-05-02T10:25:38.255Z,34.56
2018-05-02T10:28:05.791Z,35.05
2018-05-02T10:30:33.396Z,34.07
2018-05-02T10:33:00.942Z,34.51
2018-05-02T10:35:28.486Z,34.62
2018-05-02T10:37:56.037Z,33.81
2018-05-02T10:40:23.622Z,34.19
2018-05-02T10:42:51.187Z,34.97
2018-05-02T10:45:18.691Z,35.18
2018-05-02T10:47:47.283Z,33.93
2018-05-02T10:50:14.800Z,33.41
2018-05-02T10:52:42.343Z,33.47
2018-05-02T10:55:09.857Z,34.87
2018-05-02T10:57:38.734Z,35.87
2018-05-02T11:00:06.294Z,35.47
2018-05-02T11:02:33.791Z,34.84
2018-05-02T11:05:01.307Z,35.79
2018-05-02T11:07:28.824Z,36.64
2018-05-02T11:09:56.382Z,35.26
2018-05-02T11:12:23.952Z,35.24
2018-05-02T11:14:51.477Z,36.30
2018-05-02T11:17:19.053Z,36.47
2018-05-02T11:19:46.555Z,36.44
2018-05-02T11:22:14.114Z,35.98
2018-05-02T11:24:41.631Z,36.57
2018-05-02T11:27:09.171Z,36.85
2018-05-02T11:29:36.682Z,35.92
2018-05-02T11:32:04.186Z,35.25
2018-05-02T11:34:31.700Z,34.32
2018-05-02T11:36:59.225Z,34.72
2018-05-02T11:39:26.746Z,35.60
2018-05-02T11:41:54.303Z,35.65
2018-05-02T11:44:21.812Z,35.70
2018-05-02T11:46:49.332Z,35.99
2018-05-02T11:49:16.835Z,34.92
2018-05-02T11:51:44.343Z,35.27
2018-05-02T11:54:11.888Z,34.85
2018-05-02T11:56:40.280Z,35.30
2018-05-02T11:59:07.883Z,34.58
2018-05-02T12:01:35.366Z,34.05
2018-05-02T12:04:02.888Z,33.89
2018-05-02T12:06:30.438Z,34.57
2018-05-02T12:08:58.000Z,33.09
2018-05-02T12:11:25.506Z,32.93
2018-05-02T12:13:53.012Z,34.11
2018-05-02T12:16:20.516Z,33.84
2018-05-02T12:18:48.032Z,33.59
2018-05-02T12:21:15.582Z,33.57
2018-05-02T12:23:43.963Z,33.23
2018-05-02T12:26:11.481Z,32.83
2018-05-02T12:28:39.004Z,31.91
2018-05-02T12:31:06.517Z,31.93
2018-05-02T12:33:34.014Z,31.91
2018-05-02T12:36:01.516Z,32.43
2018-05-02T12:38:29.058Z,32.34
2018-05-02T12:40:56.646Z,32.21
2018-05-02T12:43:24.098Z,31.98
2018-05-02T12:45:51.611Z,31.85
2018-05-02T12:48:19.196Z,31.48
2018-05-02T12:50:46.708Z,31.10
2018-05-02T12:53:14.214Z,30.62
2018-05-02T12:55:41.772Z,31.20
2018-05-02T12:58:09.272Z,31.13
2018-05-02T13:00:36.792Z,30.65
2018-05-02T13:03:04.667Z,30.69
2018-05-02T13:05:32.206Z,29.94
2018-05-02T13:07:59.712Z,30.21
2018-05-02T13:10:27.220Z,30.03
2018-05-02T13:12:54.732Z,30.08
2018-05-02T13:15:22.294Z,29.77
2018-05-02T13:17:49.826Z,29.78
2018-05-02T13:20:17.373Z,29.83
2018-05-02T13:22:44.878Z,29.91
2018-05-02T13:25:12.462Z,30.13
2018-05-02T13:27:39.995Z,30.29
2018-05-02T13:30:07.539Z,30.68
2018-05-02T13:32:35.031Z,29.85
2018-05-02T13:35:02.528Z,29.52
2018-05-02T13:37:30.028Z,28.94
2018-05-02T13:39:57.537Z,29.02
2018-05-02T13:42:25.044Z,29.13
2018-05-02T13:44:52.562Z,28.91
2018-05-02T13:47:20.121Z,28.76
2018-05-02T13:49:47.679Z,28.62
2018-05-02T13:52:15.199Z,28.36
2018-05-02T13:54:42.717Z,28.15
2018-05-02T13:57:10.223Z,28.21
2018-05-02T13:59:37.736Z,28.23
2018-05-02T14:02:05.242Z,27.88
2018-05-02T14:04:32.813Z,27.63
2018-05-02T14:07:00.315Z,27.61
2018-05-02T14:09:27.849Z,27.36
2018-05-02T14:11:55.352Z,27.26
2018-05-02T14:14:22.863Z,27.22
2018-05-02T14:16:50.375Z,27.29
2018-05-02T14:19:17.884Z,27.22
2018-05-02T14:21:45.415Z,27.00
2018-05-02T14:24:12.947Z,26.87
2018-05-02T14:26:40.486Z,27.14
2018-05-02T14:29:08.052Z,27.02
2018-05-02T14:31:35.588Z,27.02
2018-05-02T14:34:03.129Z,27.00
2018-05-02T14:36:30.627Z,26.87
2018-05-02T14:38:58.192Z,26.92
2018-05-02T14:41:25.705Z,26.80
2018-05-02T14:43:53.198Z,26.71
2018-05-02T14:46:20.751Z,26.58
2018-05-02T14:48:48.251Z,26.60
2018-05-02T14:51:15.772Z,26.54
2018-05-02T14:53:43.312Z,26.41
2018-05-02T14:56:10.824Z,26.28
2018-05-02T14:58:38.326Z,26.39
2018-05-02T15:01:05.881Z,26.24
2018-05-02T15:03:33.398Z,26.25
2018-05-02T15:06:00.934Z,26.05
2018-05-02T15:08:28.447Z,26.20
2018-05-02T15:10:56.020Z,26.19
2018-05-02T15:13:23.522Z,26.16
2018-05-02T15:15:51.073Z,26.15
2018-05-02T15:18:18.627Z,25.89
2018-05-02T15:20:46.188Z,26.08
2018-05-02T15:23:13.683Z,25.88
2018-05-02T15:25:41.227Z,25.91
2018-05-02T15:28:08.759Z,25.68
2018-05-02T15:30:36.295Z,25.69
2018-05-02T15:33:03.855Z,25.38
2018-05-02T15:35:31.366Z,25.48
2018-05-02T15:37:58.899Z,25.33
2018-05-02T15:40:26.475Z,25.30
2018-05-02T15:42:53.992Z,25.18
2018-05-02T15:45:21.500Z,25.14
2018-05-02T15:47:49.020Z,25.12
2018-05-02T15:50:16.562Z,25.17
2018-05-02T15:52:44.068Z,25.23
2018-05-02T15:55:11.588Z,25.19
2018-05-02T15:57:39.122Z,25.24
2018-05-02T16:00:06.598Z,25.23
2018-05-02T16:02:34.104Z,25.35
2018-05-02T16:05:01.657Z,25.35
2018-05-02T16:07:29.209Z,25.35
2018-05-02T16:09:56.790Z,24.93
2018-05-02T16:12:24.251Z,25.08
2018-05-02T16:14:51.742Z,25.03
2018-05-02T16:17:19.239Z,25.03
2018-05-02T16:19:48.294Z,24.77
2018-05-02T16:22:15.878Z,24.80
2018-05-02T16:24:43.375Z,24.87
2018-05-02T16:27:10.870Z,24.73
2018-05-02T16:29:38.372Z,24.72
2018-05-02T16:32:05.892Z,24.79
2018-05-02T16:34:33.398Z,24.76
2018-05-02T16:37:00.893Z,24.74
2018-05-02T16:39:28.401Z,24.66
2018-05-02T16:41:55.916Z,24.71
2018-05-02T16:44:23.427Z,24.54
2018-05-02T16:46:51.018Z,24.42
2018-05-02T16:49:18.528Z,24.12
2018-05-02T16:51:46.051Z,24.09
2018-05-02T16:54:13.559Z,24.08
2018-05-02T16:56:41.088Z,24.07
2018-05-02T16:59:08.600Z,23.85
2018-05-02T17:01:36.151Z,23.75
2018-05-02T17:04:04.031Z,23.74
2018-05-02T17:06:31.567Z,23.60
2018-05-02T17:08:59.079Z,23.42
2018-05-02T17:11:26.581Z,23.42
2018-05-02T17:13:54.075Z,23.46
2018-05-02T17:16:21.616Z,23.53
2018-05-02T17:18:49.149Z,23.28
2018-05-02T17:21:16.726Z,23.09
2018-05-02T17:23:44.238Z,23.07
2018-05-02T17:26:11.743Z,22.94
2018-05-02T17:28:39.296Z,22.89
2018-05-02T17:31:06.795Z,22.67
2018-05-02T17:33:34.331Z,22.48
2018-05-02T17:36:01.872Z,22.43
2018-05-02T17:38:29.421Z,22.34
2018-05-02T17:40:57.001Z,22.26
2018-05-02T17:43:24.489Z,22.16
2018-05-02T17:45:52.044Z,22.02
2018-05-02T17:48:19.590Z,21.95
2018-05-02T17:50:47.200Z,21.88
2018-05-02T17:53:14.708Z,21.90
2018-05-02T17:55:42.994Z,21.79
2018-05-02T17:58:10.495Z,21.81
2018-05-02T18:00:38.091Z,21.81
2018-05-02T18:03:05.591Z,21.79
2018-05-02T18:05:33.166Z,21.75
2018-05-02T18:08:00.646Z,21.56
2018-05-02T18:10:28.217Z,21.54
2018-05-02T18:12:55.738Z,21.39
2018-05-02T18:15:23.251Z,21.40
2018-05-02T18:17:50.750Z,21.39
2018-05-02T18:20:18.263Z,21.25
2018-05-02T18:22:45.825Z,21.15
2018-05-02T18:25:13.340Z,21.03
2018-05-02T18:27:40.844Z,21.01
2018-05-02T18:30:08.456Z,21.12
2018-05-02T18:32:35.964Z,21.05
2018-05-02T18:35:03.512Z,20.87
2018-05-02T18:37:31.044Z,20.85
2018-05-02T18:39:58.601Z,20.79
2018-05-02T18:42:26.122Z,20.81
2018-05-02T18:44:54.322Z,20.55
2018-05-02T18:47:21.829Z,20.61
2018-05-02T18:49:49.328Z,20.51
2018-05-02T18:52:16.846Z,20.44
2018-05-02T18:54:44.349Z,20.39
2018-05-02T18:57:12.612Z,20.39
2018-05-02T18:59:40.159Z,20.49
2018-05-02T19:02:07.663Z,20.48
2018-05-02T19:04:35.190Z,20.39
2018-05-02T19:07:02.759Z,20.50
2018-05-02T19:09:30.273Z,20.43
2018-05-02T19:11:57.803Z,20.36
2018-05-02T19:14:25.315Z,20.40
2018-05-02T19:16:52.814Z,20.48
2018-05-02T19:19:25.978Z,20.49
2018-05-02T19:21:53.496Z,20.46
2018-05-02T19:24:21.000Z,20.43
2018-05-02T19:26:48.513Z,20.37
2018-05-02T19:29:16.025Z,20.39
2018-05-02T19:31:49.097Z,20.39
2018-05-02T19:34:16.666Z,20.35
2018-05-02T19:36:44.229Z,20.29
2018-05-02T19:39:11.754Z,20.23
2018-05-02T19:41:44.688Z,20.22
2018-05-02T19:44:12.268Z,20.25
2018-05-02T19:46:39.771Z,20.19
2018-05-02T19:49:07.269Z,20.08
2018-05-02T19:51:40.358Z,20.24
2018-05-02T19:54:07.863Z,20.11
2018-05-02T19:56:36.095Z,20.17
2018-05-02T19:59:03.709Z,20.15
2018-05-02T20:01:36.770Z,20.10
2018-05-02T20:04:04.323Z,19.96
2018-05-02T20:06:31.867Z,19.84
2018-05-02T20:09:05.054Z,19.85
2018-05-02T20:11:38.211Z,19.79
2018-05-02T20:14:06.565Z,19.71
2018-05-02T20:16:34.073Z,19.54
2018-05-02T20:19:01.691Z,19.47
2018-05-02T20:21:29.142Z,19.42
2018-05-02T20:23:56.635Z,19.43
2018-05-02T20:26:24.148Z,19.17
2018-05-02T20:28:51.653Z,19.16
2018-05-02T20:31:19.319Z,19.12
2018-05-02T20:33:46.876Z,18.92
2018-05-02T20:36:14.450Z,19.07
2018-05-02T20:38:41.974Z,19.19
2018-05-02T20:41:09.496Z,19.04
2018-05-02T20:43:37.011Z,19.13
2018-05-02T20:46:04.571Z,19.33
2018-05-02T20:48:32.085Z,19.19
2018-05-02T20:50:59.626Z,19.04
2018-05-02T20:53:27.132Z,18.74
2018-05-02T20:55:54.665Z,18.55
2018-05-02T20:58:22.177Z,18.48
2018-05-02T21:00:49.722Z,18.31
2018-05-02T21:03:17.254Z,18.09
2018-05-02T21:05:44.764Z,18.16
2018-05-02T21:08:12.284Z,18.10
2018-05-02T21:10:39.801Z,18.05
2018-05-02T21:13:07.320Z,18.05
2018-05-02T21:15:34.831Z,17.95
2018-05-02T21:18:02.338Z,17.88
2018-05-02T21:20:29.880Z,17.75
2018-05-02T21:22:57.414Z,17.78
2018-05-02T21:25:24.969Z,17.78
2018-05-02T21:27:52.475Z,17.82
2018-05-02T21:30:20.059Z,17.65
2018-05-02T21:32:47.569Z,17.64
2018-05-02T21:35:15.084Z,17.56
2018-05-02T21:37:42.594Z,17.54
2018-05-02T21:40:10.116Z,17.58
2018-05-02T21:42:37.628Z,17.46
2018-05-02T21:45:05.179Z,17.39
2018-05-02T21:47:32.740Z,17.38
2018-05-02T21:50:00.307Z,17.37
2018-05-02T21:52:27.892Z,17.42
2018-05-02T21:54:55.400Z,17.43
2018-05-02T21:57:22.927Z,17.38
2018-05-02T21:59:50.452Z,17.40
2018-05-02T22:02:17.956Z,17.33
2018-05-02T22:04:46.227Z,17.32
2018-05-02T22:07:14.044Z,17.27
2018-05-02T22:09:41.564Z,17.24
2018-05-02T22:12:09.092Z,17.05
2018-05-02T22:14:36.599Z,16.99
2018-05-02T22:17:04.140Z,17.11
2018-05-02T22:19:31.754Z,17.05
2018-05-02T22:21:59.246Z,17.04
2018-05-02T22:24:26.749Z,16.90
2018-05-02T22:26:54.276Z,16.95
2018-05-02T22:29:21.791Z,16.88
2018-05-02T22:31:49.299Z,16.75
2018-05-02T22:34:16.803Z,16.67
2018-05-02T22:36:44.371Z,16.56
2018-05-02T22:39:11.928Z,16.59
2018-05-02T22:41:39.397Z,16.68
2018-05-02T22:44:06.931Z,16.65
2018-05-02T22:46:34.430Z,16.72
2018-05-02T22:49:01.935Z,16.70
2018-05-02T22:51:29.470Z,16.62
2018-05-02T22:53:56.967Z,16.74
2018-05-02T22:56:24.467Z,16.55
2018-05-02T22:58:51.984Z,16.48
2018-05-02T23:01:19.489Z,16.59
2018-05-02T23:03:47.627Z,16.70
2018-05-02T23:06:15.122Z,16.65
2018-05-02T23:08:42.630Z,16.76
2018-05-02T23:11:10.136Z,16.59
2018-05-02T23:13:37.775Z,16.53
2018-05-02T23:16:05.284Z,16.52
2018-05-02T23:18:32.785Z,16.53
2018-05-02T23:21:00.305Z,16.47
2018-05-02T23:23:27.817Z,16.56
2018-05-02T23:25:55.320Z,16.45
2018-05-02T23:28:22.823Z,16.49
2018-05-02T23:30:51.172Z,16.52
2018-05-02T23:33:18.683Z,16.58
2018-05-02T23:35:46.197Z,16.61
2018-05-02T23:38:13.699Z,16.57
2018-05-02T23:40:41.203Z,16.64
2018-05-02T23:43:08.713Z,16.45
2018-05-02T23:45:36.560Z,16.64
2018-05-02T23:48:04.067Z,16.46
2018-05-02T23:50:31.567Z,16.68
2018-05-02T23:52:59.114Z,16.75
2018-05-02T23:55:26.636Z,16.70
2018-05-02T23:57:54.147Z,16.72
